createdAt,value
2022-12-31T00:00:37.202Z,966.46
2022-12-31T00:01:37.262Z,966.44
2022-12-31T00:02:37.284Z,966.45
2022-12-31T00:03:37.870Z,966.47
2022-12-31T00:04:37.116Z,966.48
2022-12-31T00:05:37.253Z,966.51
2022-12-31T00:06:37.095Z,966.50
2022-12-31T00:08:08.786Z,966.54
2022-12-31T00:09:09.873Z,966.53
2022-12-31T00:10:09.719Z,966.52
2022-12-31T00:11:09.847Z,966.61
2022-12-31T00:12:09.685Z,966.65
2022-12-31T00:13:09.899Z,966.56
2022-12-31T00:14:09.746Z,966.59
2022-12-31T00:15:09.705Z,966.65
2022-12-31T00:16:12.189Z,966.65
2022-12-31T00:17:09.822Z,966.71
2022-12-31T00:18:09.623Z,966.70
2022-12-31T00:19:09.691Z,966.62
2022-12-31T00:20:09.655Z,966.62
2022-12-31T00:21:09.752Z,966.67
2022-12-31T00:22:09.553Z,966.69
2022-12-31T00:23:09.662Z,966.63
2022-12-31T00:24:09.753Z,966.73
2022-12-31T00:25:09.536Z,966.74
2022-12-31T00:26:09.565Z,966.74
2022-12-31T00:27:09.478Z,966.80
2022-12-31T00:28:09.603Z,966.74
2022-12-31T00:29:09.488Z,966.82
2022-12-31T00:30:09.495Z,966.83
2022-12-31T00:31:10.163Z,966.92
2022-12-31T00:32:09.645Z,966.90
2022-12-31T00:33:09.392Z,966.93
2022-12-31T00:34:09.910Z,966.95
2022-12-31T00:35:09.409Z,967.09
2022-12-31T00:36:09.445Z,967.02
2022-12-31T00:37:09.378Z,966.97
2022-12-31T00:38:09.450Z,967.04
2022-12-31T00:39:11.611Z,967.09
2022-12-31T00:40:09.476Z,967.00
2022-12-31T00:41:09.329Z,967.08
2022-12-31T00:42:09.366Z,967.19
2022-12-31T00:43:09.260Z,967.07
2022-12-31T00:44:09.371Z,967.16
2022-12-31T00:45:09.367Z,967.22
2022-12-31T00:46:09.360Z,967.17
2022-12-31T00:47:09.331Z,967.18
2022-12-31T00:48:09.195Z,967.22
2022-12-31T00:49:09.201Z,967.18
2022-12-31T00:50:09.185Z,967.21
2022-12-31T00:51:10.385Z,967.16
2022-12-31T00:52:09.181Z,967.11
2022-12-31T00:53:09.344Z,967.13
2022-12-31T00:54:09.123Z,967.14
2022-12-31T00:55:09.198Z,967.11
2022-12-31T00:56:09.108Z,967.18
2022-12-31T00:57:09.154Z,967.17
2022-12-31T00:58:09.114Z,967.18
2022-12-31T00:59:09.155Z,967.10
2022-12-31T01:00:09.089Z,967.13
2022-12-31T01:01:09.310Z,967.15
2022-12-31T01:02:09.260Z,967.17
2022-12-31T01:03:10.061Z,967.22
2022-12-31T01:04:09.030Z,967.29
2022-12-31T01:05:09.001Z,967.38
2022-12-31T01:06:09.001Z,967.41
2022-12-31T01:07:09.017Z,967.37
2022-12-31T01:08:08.940Z,967.40
2022-12-31T01:09:09.098Z,967.38
2022-12-31T01:10:08.940Z,967.38
2022-12-31T01:11:09.056Z,967.47
2022-12-31T01:12:08.923Z,967.44
2022-12-31T01:13:09.070Z,967.43
2022-12-31T01:14:08.925Z,967.39
2022-12-31T01:15:08.981Z,967.42
2022-12-31T01:16:08.949Z,967.44
2022-12-31T01:17:08.866Z,967.46
2022-12-31T01:18:08.836Z,967.51
2022-12-31T01:19:08.946Z,967.47
2022-12-31T01:20:08.824Z,967.48
2022-12-31T01:21:08.931Z,967.49
2022-12-31T01:22:08.805Z,967.46
2022-12-31T01:23:08.810Z,967.51
2022-12-31T01:24:08.802Z,967.64
2022-12-31T01:25:08.730Z,967.55
2022-12-31T01:26:08.806Z,967.57
2022-12-31T01:27:08.675Z,967.63
2022-12-31T01:28:08.776Z,967.64
2022-12-31T01:29:08.704Z,967.65
2022-12-31T01:30:08.829Z,967.65
2022-12-31T01:31:08.688Z,967.79
2022-12-31T01:32:08.711Z,967.76
2022-12-31T01:33:08.646Z,967.78
2022-12-31T01:34:08.708Z,967.77
2022-12-31T01:35:08.661Z,967.78
2022-12-31T01:36:08.614Z,967.68
2022-12-31T01:37:08.616Z,967.77
2022-12-31T01:38:08.607Z,967.86
2022-12-31T01:39:08.554Z,967.67
2022-12-31T01:40:08.702Z,967.76
2022-12-31T01:41:08.548Z,967.88
2022-12-31T01:42:08.560Z,967.87
2022-12-31T01:43:08.507Z,967.92
2022-12-31T01:44:08.581Z,967.93
2022-12-31T01:45:08.543Z,967.89
2022-12-31T01:46:09.269Z,967.92
2022-12-31T01:47:08.606Z,968.05
2022-12-31T01:48:08.429Z,967.90
2022-12-31T01:49:08.699Z,967.93
2022-12-31T01:50:08.409Z,967.98
2022-12-31T01:51:08.432Z,967.94
2022-12-31T01:52:08.586Z,967.86
2022-12-31T01:53:08.376Z,967.86
2022-12-31T01:54:08.531Z,967.89
2022-12-31T01:55:08.369Z,967.82
2022-12-31T01:56:08.344Z,967.84
2022-12-31T01:57:08.389Z,967.84
2022-12-31T01:58:08.351Z,967.80
2022-12-31T01:59:08.314Z,967.75
2022-12-31T02:00:08.367Z,967.89
2022-12-31T02:01:08.308Z,967.85
2022-12-31T02:02:08.485Z,967.87
2022-12-31T02:03:08.339Z,967.80
2022-12-31T02:04:08.281Z,967.83
2022-12-31T02:05:08.267Z,967.77
2022-12-31T02:06:08.386Z,967.77
2022-12-31T02:07:08.226Z,967.71
2022-12-31T02:08:08.400Z,967.74
2022-12-31T02:09:08.231Z,967.81
2022-12-31T02:10:08.218Z,967.85
2022-12-31T02:11:08.204Z,967.79
2022-12-31T02:12:08.119Z,967.78
2022-12-31T02:13:08.225Z,967.86
2022-12-31T02:14:08.089Z,967.88
2022-12-31T02:15:08.701Z,967.88
2022-12-31T02:16:08.083Z,967.98
2022-12-31T02:17:08.232Z,967.89
2022-12-31T02:18:08.212Z,967.94
2022-12-31T02:19:08.062Z,968.00
2022-12-31T02:20:08.237Z,967.96
2022-12-31T02:21:08.000Z,967.96
2022-12-31T02:22:08.041Z,968.05
2022-12-31T02:23:08.112Z,967.97
2022-12-31T02:24:07.976Z,968.07
2022-12-31T02:25:08.149Z,968.00
2022-12-31T02:26:07.932Z,968.05
2022-12-31T02:27:08.073Z,968.05
2022-12-31T02:28:07.894Z,968.05
2022-12-31T02:29:08.127Z,968.05
2022-12-31T02:30:07.905Z,968.04
2022-12-31T02:31:08.176Z,968.02
2022-12-31T02:32:07.862Z,968.06
2022-12-31T02:33:07.936Z,968.01
2022-12-31T02:34:07.844Z,967.94
2022-12-31T02:35:07.965Z,968.01
2022-12-31T02:36:08.633Z,967.94
2022-12-31T02:37:07.937Z,967.89
2022-12-31T02:38:07.755Z,967.97
2022-12-31T02:39:07.909Z,968.01
2022-12-31T02:40:07.755Z,968.04
2022-12-31T02:41:07.860Z,968.06
2022-12-31T02:42:07.707Z,968.03
2022-12-31T02:43:07.899Z,968.14
2022-12-31T02:44:07.924Z,968.10
2022-12-31T02:45:07.676Z,968.16
2022-12-31T02:46:07.923Z,968.06
2022-12-31T02:47:07.674Z,968.04
2022-12-31T02:48:07.694Z,968.06
2022-12-31T02:49:07.619Z,968.01
2022-12-31T02:50:07.767Z,968.02
2022-12-31T02:51:07.648Z,968.14
2022-12-31T02:52:07.713Z,968.08
2022-12-31T02:53:07.600Z,968.12
2022-12-31T02:54:07.727Z,968.14
2022-12-31T02:55:07.561Z,968.14
2022-12-31T02:56:07.675Z,968.15
2022-12-31T02:57:07.550Z,968.19
2022-12-31T02:58:07.633Z,968.21
2022-12-31T02:59:07.651Z,968.18
2022-12-31T03:00:07.458Z,968.17
2022-12-31T03:01:07.671Z,968.15
2022-12-31T03:02:07.581Z,968.20
2022-12-31T03:03:07.658Z,968.23
2022-12-31T03:04:07.414Z,968.25
2022-12-31T03:05:07.601Z,968.24
2022-12-31T03:06:07.403Z,968.27
2022-12-31T03:07:07.469Z,968.28
2022-12-31T03:08:07.394Z,968.23
2022-12-31T03:09:07.439Z,968.20
2022-12-31T03:10:07.395Z,968.24
2022-12-31T03:11:07.453Z,968.18
2022-12-31T03:12:07.368Z,968.18
2022-12-31T03:13:07.471Z,968.18
2022-12-31T03:14:07.290Z,968.22
2022-12-31T03:15:07.389Z,968.17
2022-12-31T03:16:07.337Z,968.13
2022-12-31T03:17:07.424Z,968.18
2022-12-31T03:18:07.261Z,968.20
2022-12-31T03:19:07.411Z,968.21
2022-12-31T03:20:07.216Z,968.12
2022-12-31T03:21:07.356Z,968.15
2022-12-31T03:22:07.190Z,968.11
2022-12-31T03:23:07.387Z,968.18
2022-12-31T03:24:07.710Z,968.14
2022-12-31T03:25:07.355Z,968.19
2022-12-31T03:26:07.124Z,968.18
2022-12-31T03:27:07.372Z,968.21
2022-12-31T03:28:07.131Z,968.10
2022-12-31T03:29:07.825Z,968.15
2022-12-31T03:30:07.773Z,968.15
2022-12-31T03:31:07.140Z,968.21
2022-12-31T03:32:08.210Z,968.25
2022-12-31T03:33:07.084Z,968.21
2022-12-31T03:34:07.166Z,968.23
2022-12-31T03:35:07.051Z,968.22
2022-12-31T03:36:07.081Z,968.23
2022-12-31T03:37:07.022Z,968.23
2022-12-31T03:38:07.120Z,968.27
2022-12-31T03:39:07.039Z,968.27
2022-12-31T03:40:07.019Z,968.28
2022-12-31T03:41:06.999Z,968.23
2022-12-31T03:42:07.046Z,968.27
2022-12-31T03:43:06.957Z,968.22
2022-12-31T03:44:07.007Z,968.23
2022-12-31T03:45:06.911Z,968.25
2022-12-31T03:46:07.055Z,968.30
2022-12-31T03:47:06.881Z,968.31
2022-12-31T03:48:07.019Z,968.25
2022-12-31T03:49:06.953Z,968.29
2022-12-31T03:50:06.997Z,968.27
2022-12-31T03:51:07.024Z,968.25
2022-12-31T03:52:06.827Z,968.24
2022-12-31T03:53:07.091Z,968.30
2022-12-31T03:54:06.805Z,968.29
2022-12-31T03:55:06.934Z,968.27
2022-12-31T03:56:06.962Z,968.29
2022-12-31T03:57:06.779Z,968.31
2022-12-31T03:58:06.797Z,968.29
2022-12-31T03:59:06.729Z,968.29
2022-12-31T04:00:08.194Z,968.30
2022-12-31T04:01:06.871Z,968.30
2022-12-31T04:02:06.772Z,968.32
2022-12-31T04:03:06.975Z,968.35
2022-12-31T04:04:06.662Z,968.43
2022-12-31T04:05:06.687Z,968.41
2022-12-31T04:06:06.801Z,968.41
2022-12-31T04:07:06.619Z,968.41
2022-12-31T04:08:06.650Z,968.41
2022-12-31T04:09:06.601Z,968.41
2022-12-31T04:10:06.612Z,968.45
2022-12-31T04:11:06.591Z,968.43
2022-12-31T04:12:06.700Z,968.40
2022-12-31T04:13:06.574Z,968.47
2022-12-31T04:14:06.652Z,968.43
2022-12-31T04:15:06.553Z,968.57
2022-12-31T04:16:06.763Z,968.59
2022-12-31T04:17:06.513Z,968.51
2022-12-31T04:18:06.582Z,968.58
2022-12-31T04:19:06.505Z,968.57
2022-12-31T04:20:06.581Z,968.56
2022-12-31T04:21:06.460Z,968.59
2022-12-31T04:22:06.533Z,968.51
2022-12-31T04:23:06.420Z,968.52
2022-12-31T04:24:06.421Z,968.54
2022-12-31T04:25:06.377Z,968.51
2022-12-31T04:26:07.501Z,968.56
2022-12-31T04:27:07.970Z,968.59
2022-12-31T04:28:06.438Z,968.61
2022-12-31T04:29:06.377Z,968.81
2022-12-31T04:30:06.344Z,968.76
2022-12-31T04:31:06.317Z,968.77
2022-12-31T04:32:06.409Z,968.71
2022-12-31T04:33:06.272Z,968.70
2022-12-31T04:34:06.431Z,968.70
2022-12-31T04:35:06.273Z,968.70
2022-12-31T04:36:06.395Z,968.62
2022-12-31T04:37:06.406Z,968.65
2022-12-31T04:38:06.185Z,968.70
2022-12-31T04:39:06.439Z,968.66
2022-12-31T04:40:07.108Z,968.77
2022-12-31T04:41:06.251Z,968.70
2022-12-31T04:42:06.135Z,968.72
2022-12-31T04:43:06.253Z,968.71
2022-12-31T04:44:06.123Z,968.70
2022-12-31T04:45:06.291Z,968.75
2022-12-31T04:46:06.175Z,968.82
2022-12-31T04:47:07.209Z,968.74
2022-12-31T04:48:06.074Z,968.89
2022-12-31T04:49:06.235Z,968.71
2022-12-31T04:50:06.057Z,968.75
2022-12-31T04:51:06.213Z,968.67
2022-12-31T04:52:06.073Z,968.68
2022-12-31T04:53:06.295Z,968.69
2022-12-31T04:54:06.013Z,968.71
2022-12-31T04:55:06.014Z,968.80
2022-12-31T04:56:05.959Z,968.82
2022-12-31T04:57:06.036Z,968.82
2022-12-31T04:58:06.065Z,968.83
2022-12-31T04:59:05.965Z,968.84
2022-12-31T05:00:06.039Z,968.86
2022-12-31T05:01:12.380Z,968.90
2022-12-31T05:02:06.907Z,968.90
2022-12-31T05:03:06.074Z,968.86
2022-12-31T05:04:05.881Z,968.90
2022-12-31T05:05:06.657Z,968.89
2022-12-31T05:06:05.837Z,968.92
2022-12-31T05:07:06.009Z,968.88
2022-12-31T05:08:06.051Z,968.84
2022-12-31T05:09:05.829Z,968.87
2022-12-31T05:10:05.810Z,968.89
2022-12-31T05:11:05.820Z,968.86
2022-12-31T05:12:05.818Z,968.85
2022-12-31T05:13:05.901Z,968.83
2022-12-31T05:14:05.734Z,968.89
2022-12-31T05:15:05.886Z,968.89
2022-12-31T05:16:05.695Z,968.90
2022-12-31T05:17:05.878Z,968.90
2022-12-31T05:18:05.698Z,968.88
2022-12-31T05:19:05.787Z,968.86
2022-12-31T05:20:05.657Z,968.90
2022-12-31T05:21:05.683Z,968.88
2022-12-31T05:22:05.619Z,968.83
2022-12-31T05:23:05.721Z,968.87
2022-12-31T05:24:05.616Z,968.88
2022-12-31T05:25:05.796Z,968.89
2022-12-31T05:26:05.593Z,968.94
2022-12-31T05:27:05.624Z,969.01
2022-12-31T05:28:05.547Z,968.97
2022-12-31T05:29:05.719Z,969.01
2022-12-31T05:30:05.554Z,969.06
2022-12-31T05:31:05.593Z,968.97
2022-12-31T05:32:05.540Z,969.00
2022-12-31T05:33:05.569Z,969.00
2022-12-31T05:34:05.708Z,968.97
2022-12-31T05:35:05.532Z,969.02
2022-12-31T05:36:05.479Z,968.97
2022-12-31T05:37:05.469Z,968.94
2022-12-31T05:38:06.030Z,968.92
2022-12-31T05:39:05.623Z,968.88
2022-12-31T05:40:05.432Z,968.91
2022-12-31T05:41:05.536Z,968.90
2022-12-31T05:42:05.377Z,968.96
2022-12-31T05:43:05.453Z,968.93
2022-12-31T05:44:05.357Z,968.92
2022-12-31T05:45:05.470Z,968.87
2022-12-31T05:46:05.438Z,968.95
2022-12-31T05:47:05.456Z,968.94
2022-12-31T05:48:05.341Z,968.99
2022-12-31T05:49:05.423Z,968.87
2022-12-31T05:50:05.314Z,968.92
2022-12-31T05:51:05.385Z,968.88
2022-12-31T05:52:05.251Z,968.79
2022-12-31T05:53:05.386Z,968.83
2022-12-31T05:54:05.262Z,968.89
2022-12-31T05:55:05.461Z,968.92
2022-12-31T05:56:05.205Z,968.95
2022-12-31T05:57:05.307Z,968.91
2022-12-31T05:58:05.176Z,968.88
2022-12-31T05:59:05.219Z,968.95
2022-12-31T06:00:05.358Z,968.92
2022-12-31T06:01:05.230Z,968.83
2022-12-31T06:02:05.271Z,968.76
2022-12-31T06:03:05.209Z,968.82
2022-12-31T06:04:05.405Z,968.86
2022-12-31T06:05:05.274Z,968.84
2022-12-31T06:06:05.090Z,968.84
2022-12-31T06:07:05.087Z,968.81
2022-12-31T06:08:05.088Z,968.83
2022-12-31T06:09:05.041Z,968.81
2022-12-31T06:10:05.101Z,968.87
2022-12-31T06:11:04.994Z,968.96
2022-12-31T06:12:05.147Z,968.99
2022-12-31T06:13:04.988Z,969.03
2022-12-31T06:14:05.107Z,969.08
2022-12-31T06:15:04.983Z,969.20
2022-12-31T06:16:05.032Z,969.16
2022-12-31T06:17:05.109Z,969.05
2022-12-31T06:18:04.946Z,969.04
2022-12-31T06:19:04.943Z,969.03
2022-12-31T06:20:10.543Z,969.02
2022-12-31T06:21:04.866Z,969.06
2022-12-31T06:22:05.754Z,969.24
2022-12-31T06:23:05.355Z,969.21
2022-12-31T06:24:04.893Z,969.12
2022-12-31T06:25:04.837Z,969.24
2022-12-31T06:26:04.976Z,969.26
2022-12-31T06:27:04.806Z,969.26
2022-12-31T06:28:04.815Z,969.29
2022-12-31T06:29:04.791Z,969.27
2022-12-31T06:30:04.792Z,969.22
2022-12-31T06:31:04.838Z,969.30
2022-12-31T06:32:04.833Z,969.35
2022-12-31T06:33:04.724Z,969.43
2022-12-31T06:34:04.765Z,969.43
2022-12-31T06:35:04.674Z,969.48
2022-12-31T06:36:04.725Z,969.47
2022-12-31T06:37:06.325Z,969.49
2022-12-31T06:38:04.782Z,969.47
2022-12-31T06:39:04.675Z,969.49
2022-12-31T06:40:04.831Z,969.43
2022-12-31T06:41:04.762Z,969.43
2022-12-31T06:42:04.611Z,969.46
2022-12-31T06:43:04.659Z,969.50
2022-12-31T06:44:04.602Z,969.54
2022-12-31T06:45:04.603Z,969.48
2022-12-31T06:46:04.621Z,969.51
2022-12-31T06:47:04.675Z,969.50
2022-12-31T06:48:04.558Z,969.47
2022-12-31T06:49:04.583Z,969.42
2022-12-31T06:50:04.547Z,969.39
2022-12-31T06:51:04.557Z,969.36
2022-12-31T06:52:04.519Z,969.31
2022-12-31T06:53:04.534Z,969.32
2022-12-31T06:54:04.448Z,969.29
2022-12-31T06:55:04.515Z,969.28
2022-12-31T06:56:05.667Z,969.31
2022-12-31T06:57:04.428Z,969.27
2022-12-31T06:58:05.265Z,969.18
2022-12-31T06:59:05.162Z,969.18
2022-12-31T07:00:05.155Z,969.18
2022-12-31T07:01:05.301Z,969.24
2022-12-31T07:02:04.756Z,969.19
2022-12-31T07:03:04.349Z,969.20
2022-12-31T07:04:04.879Z,969.19
2022-12-31T07:05:05.162Z,969.21
2022-12-31T07:06:04.362Z,969.20
2022-12-31T07:07:04.798Z,969.16
2022-12-31T07:08:04.452Z,969.12
2022-12-31T07:09:05.179Z,969.16
2022-12-31T07:10:04.376Z,969.23
2022-12-31T07:11:04.741Z,969.24
2022-12-31T07:12:04.874Z,969.27
2022-12-31T07:13:04.177Z,969.29
2022-12-31T07:14:05.571Z,969.32
2022-12-31T07:15:04.159Z,969.35
2022-12-31T07:16:04.288Z,969.41
2022-12-31T07:17:04.133Z,969.40
2022-12-31T07:18:04.247Z,969.39
2022-12-31T07:19:04.122Z,969.37
2022-12-31T07:20:04.705Z,969.41
2022-12-31T07:21:04.087Z,969.37
2022-12-31T07:22:04.177Z,969.36
2022-12-31T07:23:04.203Z,969.36
2022-12-31T07:24:04.149Z,969.38
2022-12-31T07:25:04.052Z,969.39
2022-12-31T07:26:25.626Z,969.34
2022-12-31T07:27:04.094Z,969.36
2022-12-31T07:28:04.016Z,969.39
2022-12-31T07:29:04.011Z,969.41
2022-12-31T07:30:03.995Z,969.47
2022-12-31T07:31:04.265Z,969.52
2022-12-31T07:32:04.109Z,969.55
2022-12-31T07:33:03.946Z,969.51
2022-12-31T07:34:04.016Z,969.52
2022-12-31T07:35:03.895Z,969.54
2022-12-31T07:36:03.944Z,969.53
2022-12-31T07:37:03.907Z,969.51
2022-12-31T07:38:03.881Z,969.51
2022-12-31T07:39:03.923Z,969.55
2022-12-31T07:40:03.874Z,969.56
2022-12-31T07:41:09.324Z,969.61
2022-12-31T07:42:05.671Z,969.64
2022-12-31T07:43:03.903Z,969.63
2022-12-31T07:44:03.821Z,969.68
2022-12-31T07:45:03.851Z,969.71
2022-12-31T07:46:03.798Z,969.73
2022-12-31T07:47:03.904Z,969.74
2022-12-31T07:48:03.758Z,969.73
2022-12-31T07:49:03.796Z,969.70
2022-12-31T07:50:03.743Z,969.81
2022-12-31T07:51:03.772Z,969.85
2022-12-31T07:52:03.695Z,969.91
2022-12-31T07:53:03.744Z,969.86
2022-12-31T07:54:06.418Z,969.86
2022-12-31T07:55:03.641Z,969.87
2022-12-31T07:56:03.772Z,969.88
2022-12-31T07:57:03.661Z,969.87
2022-12-31T07:58:03.683Z,969.94
2022-12-31T07:59:03.606Z,969.96
2022-12-31T08:00:03.685Z,969.93
2022-12-31T08:01:03.731Z,969.92
2022-12-31T08:02:03.952Z,969.94
2022-12-31T08:03:03.663Z,969.89
2022-12-31T08:04:03.573Z,969.96
2022-12-31T08:05:03.592Z,969.97
2022-12-31T08:06:03.533Z,969.98
2022-12-31T08:07:03.551Z,969.98
2022-12-31T08:08:03.573Z,970.00
2022-12-31T08:09:03.467Z,970.00
2022-12-31T08:10:03.538Z,970.00
2022-12-31T08:11:03.435Z,970.05
2022-12-31T08:12:03.591Z,970.08
2022-12-31T08:13:03.442Z,970.09
2022-12-31T08:14:03.448Z,970.11
2022-12-31T08:15:03.466Z,970.14
2022-12-31T08:16:03.490Z,970.12
2022-12-31T08:17:03.493Z,970.18
2022-12-31T08:18:03.411Z,970.20
2022-12-31T08:19:03.415Z,970.16
2022-12-31T08:20:03.349Z,970.16
2022-12-31T08:21:03.396Z,970.22
2022-12-31T08:22:03.337Z,970.20
2022-12-31T08:23:03.332Z,970.26
2022-12-31T08:24:03.290Z,970.26
2022-12-31T08:25:03.392Z,970.26
2022-12-31T08:26:03.296Z,970.25
2022-12-31T08:27:03.328Z,970.18
2022-12-31T08:28:03.251Z,970.21
2022-12-31T08:29:03.277Z,970.20
2022-12-31T08:30:04.548Z,970.17
2022-12-31T08:31:03.240Z,970.15
2022-12-31T08:32:03.291Z,970.12
2022-12-31T08:33:03.322Z,970.14
2022-12-31T08:34:06.078Z,970.15
2022-12-31T08:35:03.187Z,970.13
2022-12-31T08:36:03.155Z,970.12
2022-12-31T08:37:03.244Z,970.09
2022-12-31T08:38:03.671Z,970.09
2022-12-31T08:39:03.121Z,970.09
2022-12-31T08:40:03.136Z,970.15
2022-12-31T08:41:03.118Z,970.16
2022-12-31T08:42:03.087Z,970.08
2022-12-31T08:43:03.073Z,970.15
2022-12-31T08:44:03.084Z,970.07
2022-12-31T08:45:03.022Z,970.05
2022-12-31T08:46:03.142Z,970.06
2022-12-31T08:47:03.062Z,970.04
2022-12-31T08:48:03.784Z,970.08
2022-12-31T08:49:02.995Z,970.01
2022-12-31T08:50:03.131Z,970.07
2022-12-31T08:51:02.911Z,970.10
2022-12-31T08:52:02.997Z,970.11
2022-12-31T08:53:02.923Z,970.19
2022-12-31T08:54:02.954Z,970.13
2022-12-31T08:55:02.861Z,970.13
2022-12-31T08:56:02.992Z,970.20
2022-12-31T08:57:02.847Z,970.24
2022-12-31T08:58:02.953Z,970.27
2022-12-31T08:59:02.844Z,970.29
2022-12-31T09:00:02.973Z,970.33
2022-12-31T09:01:02.861Z,970.24
2022-12-31T09:02:03.096Z,970.27
2022-12-31T09:03:02.767Z,970.32
2022-12-31T09:04:02.918Z,970.25
2022-12-31T09:05:03.686Z,970.35
2022-12-31T09:06:02.784Z,970.30
2022-12-31T09:07:02.715Z,970.33
2022-12-31T09:08:02.797Z,970.33
2022-12-31T09:09:02.716Z,970.36
2022-12-31T09:10:02.774Z,970.36
2022-12-31T09:11:02.664Z,970.36
2022-12-31T09:12:03.156Z,970.38
2022-12-31T09:13:02.675Z,970.40
2022-12-31T09:14:02.790Z,970.42
2022-12-31T09:15:02.668Z,970.40
2022-12-31T09:16:02.679Z,970.38
2022-12-31T09:17:02.588Z,970.37
2022-12-31T09:18:02.798Z,970.39
2022-12-31T09:19:02.600Z,970.42
2022-12-31T09:20:02.618Z,970.41
2022-12-31T09:21:02.558Z,970.37
2022-12-31T09:22:02.619Z,970.38
2022-12-31T09:23:02.523Z,970.44
2022-12-31T09:24:08.961Z,970.48
2022-12-31T09:25:02.536Z,970.35
2022-12-31T09:26:02.619Z,970.31
2022-12-31T09:27:02.465Z,970.38
2022-12-31T09:28:02.617Z,970.35
2022-12-31T09:29:02.494Z,970.36
2022-12-31T09:30:02.559Z,970.37
2022-12-31T09:31:02.414Z,970.39
2022-12-31T09:32:02.478Z,970.35
2022-12-31T09:33:02.387Z,970.36
2022-12-31T09:34:02.478Z,970.35
2022-12-31T09:35:02.353Z,970.33
2022-12-31T09:36:03.693Z,970.38
2022-12-31T09:37:02.344Z,970.40
2022-12-31T09:38:05.305Z,970.35
2022-12-31T09:39:02.308Z,970.38
2022-12-31T09:40:02.342Z,970.34
2022-12-31T09:41:02.303Z,970.45
2022-12-31T09:42:02.414Z,970.46
2022-12-31T09:43:02.264Z,970.37
2022-12-31T09:44:02.339Z,970.40
2022-12-31T09:45:02.244Z,970.50
2022-12-31T09:46:03.607Z,970.42
2022-12-31T09:47:02.187Z,970.47
2022-12-31T09:48:02.305Z,970.47
2022-12-31T09:49:02.166Z,970.41
2022-12-31T09:50:02.311Z,970.48
2022-12-31T09:51:02.242Z,970.51
2022-12-31T09:52:02.144Z,970.49
2022-12-31T09:53:02.266Z,970.50
2022-12-31T09:54:02.135Z,970.48
2022-12-31T09:55:02.117Z,970.58
2022-12-31T09:56:02.145Z,970.54
2022-12-31T09:57:02.122Z,970.47
2022-12-31T09:58:02.133Z,970.48
2022-12-31T09:59:02.173Z,970.42
2022-12-31T10:00:02.065Z,970.40
2022-12-31T10:01:02.253Z,970.52
2022-12-31T10:02:02.226Z,970.45
2022-12-31T10:03:02.096Z,970.44
2022-12-31T10:04:02.026Z,970.35
2022-12-31T10:05:02.102Z,970.27
2022-12-31T10:06:01.985Z,970.27
2022-12-31T10:07:02.124Z,970.27
2022-12-31T10:08:01.957Z,970.38
2022-12-31T10:09:02.130Z,970.32
2022-12-31T10:10:01.982Z,970.30
2022-12-31T10:11:03.066Z,970.35
2022-12-31T10:12:01.910Z,970.31
2022-12-31T10:13:01.963Z,970.29
2022-12-31T10:14:01.892Z,970.27
2022-12-31T10:15:01.916Z,970.17
2022-12-31T10:16:01.840Z,970.21
2022-12-31T10:17:01.927Z,970.29
2022-12-31T10:18:01.829Z,970.27
2022-12-31T10:19:02.677Z,970.30
2022-12-31T10:20:01.829Z,970.29
2022-12-31T10:21:01.902Z,970.23
2022-12-31T10:22:01.889Z,970.18
2022-12-31T10:23:01.781Z,970.25
2022-12-31T10:24:01.748Z,970.17
2022-12-31T10:25:01.780Z,970.16
2022-12-31T10:26:01.913Z,970.24
2022-12-31T10:27:01.781Z,970.15
2022-12-31T10:28:01.708Z,970.11
2022-12-31T10:29:01.749Z,970.07
2022-12-31T10:30:02.730Z,970.10
2022-12-31T10:31:01.797Z,970.02
2022-12-31T10:32:01.792Z,969.96
2022-12-31T10:33:01.674Z,969.99
2022-12-31T10:34:01.794Z,969.95
2022-12-31T10:35:01.740Z,970.07
2022-12-31T10:36:01.676Z,969.95
2022-12-31T10:37:01.665Z,969.99
2022-12-31T10:38:02.243Z,970.00
2022-12-31T10:39:03.030Z,969.96
2022-12-31T10:40:01.725Z,969.94
2022-12-31T10:41:01.572Z,969.90
2022-12-31T10:42:01.673Z,970.01
2022-12-31T10:43:01.573Z,969.89
2022-12-31T10:44:01.523Z,969.88
2022-12-31T10:45:01.523Z,969.87
2022-12-31T10:46:01.623Z,969.79
2022-12-31T10:47:01.494Z,969.74
2022-12-31T10:48:01.548Z,969.73
2022-12-31T10:49:01.528Z,969.68
2022-12-31T10:50:01.566Z,969.74
2022-12-31T10:51:01.448Z,969.77
2022-12-31T10:52:01.425Z,969.83
2022-12-31T10:53:01.445Z,969.81
2022-12-31T10:54:01.446Z,969.87
2022-12-31T10:55:01.384Z,969.85
2022-12-31T10:56:01.412Z,969.83
2022-12-31T10:57:01.391Z,969.82
2022-12-31T10:58:04.264Z,969.80
2022-12-31T10:59:01.391Z,969.82
2022-12-31T11:00:01.373Z,969.79
2022-12-31T11:01:01.435Z,969.78
2022-12-31T11:02:01.536Z,969.82
2022-12-31T11:03:01.505Z,969.81
2022-12-31T11:04:01.873Z,969.83
2022-12-31T11:05:01.442Z,969.86
2022-12-31T11:06:01.262Z,969.83
2022-12-31T11:07:01.316Z,969.81
2022-12-31T11:08:01.285Z,969.74
2022-12-31T11:09:01.259Z,969.69
2022-12-31T11:10:01.383Z,969.67
2022-12-31T11:11:01.223Z,969.67
2022-12-31T11:12:01.260Z,969.66
2022-12-31T11:13:01.188Z,969.68
2022-12-31T11:14:01.171Z,969.64
2022-12-31T11:15:01.203Z,969.73
2022-12-31T11:16:01.255Z,969.69
2022-12-31T11:17:01.146Z,969.63
2022-12-31T11:18:01.253Z,969.64
2022-12-31T11:19:01.115Z,969.62
2022-12-31T11:20:01.130Z,969.55
2022-12-31T11:21:01.342Z,969.58
2022-12-31T11:22:01.145Z,969.51
2022-12-31T11:23:01.068Z,969.58
2022-12-31T11:24:01.096Z,969.50
2022-12-31T11:25:01.084Z,969.56
2022-12-31T11:26:01.064Z,969.50
2022-12-31T11:27:01.025Z,969.51
2022-12-31T11:28:01.156Z,969.51
2022-12-31T11:29:00.984Z,969.41
2022-12-31T11:30:01.078Z,969.49
2022-12-31T11:31:01.022Z,969.40
2022-12-31T11:32:01.073Z,969.42
2022-12-31T11:33:00.945Z,969.34
2022-12-31T11:34:01.043Z,969.33
2022-12-31T11:35:00.958Z,969.28
2022-12-31T11:36:00.964Z,969.27
2022-12-31T11:37:00.934Z,969.29
2022-12-31T11:38:00.980Z,969.19
2022-12-31T11:39:01.011Z,969.17
2022-12-31T11:40:00.858Z,969.13
2022-12-31T11:41:00.990Z,969.09
2022-12-31T11:42:00.819Z,969.12
2022-12-31T11:43:00.889Z,969.16
2022-12-31T11:44:00.805Z,969.18
2022-12-31T11:45:00.789Z,969.08
2022-12-31T11:46:00.926Z,969.01
2022-12-31T11:47:00.926Z,968.97
2022-12-31T11:49:00.763Z,968.99
2022-12-31T11:50:00.756Z,968.97
2022-12-31T11:51:00.725Z,968.99
2022-12-31T11:52:01.408Z,968.98
2022-12-31T11:53:00.718Z,969.00
2022-12-31T11:54:00.822Z,968.96
2022-12-31T11:55:00.684Z,969.02
2022-12-31T11:56:00.787Z,968.99
2022-12-31T11:57:00.684Z,968.93
2022-12-31T11:58:00.641Z,968.91
2022-12-31T11:59:04.735Z,968.87
2022-12-31T12:00:00.665Z,968.96
2022-12-31T12:01:02.215Z,968.87
2022-12-31T12:02:00.595Z,968.90
2022-12-31T12:03:00.889Z,968.96
2022-12-31T12:04:00.611Z,968.86
2022-12-31T12:05:03.828Z,968.90
2022-12-31T12:06:00.511Z,968.88
2022-12-31T12:07:00.566Z,968.89
2022-12-31T12:08:00.501Z,968.80
2022-12-31T12:09:00.536Z,968.84
2022-12-31T12:10:00.561Z,968.79
2022-12-31T12:11:00.497Z,968.83
2022-12-31T12:12:00.560Z,968.73
2022-12-31T12:13:00.460Z,968.81
2022-12-31T12:14:00.538Z,968.75
2022-12-31T12:15:00.443Z,968.76
2022-12-31T12:16:00.552Z,968.77
2022-12-31T12:17:04.833Z,968.78
2022-12-31T12:18:01.217Z,968.85
2022-12-31T12:19:00.437Z,968.86
2022-12-31T12:20:00.438Z,968.78
2022-12-31T12:21:00.421Z,968.85
2022-12-31T12:22:00.416Z,968.79
2022-12-31T12:23:01.094Z,968.88
2022-12-31T12:24:00.409Z,968.82
2022-12-31T12:25:00.431Z,968.80
2022-12-31T12:26:00.323Z,968.80
2022-12-31T12:27:00.461Z,968.77
2022-12-31T12:28:00.293Z,968.79
2022-12-31T12:29:00.438Z,968.85
2022-12-31T12:30:00.266Z,968.87